createdAt,value
2022-11-28T00:02:11.007Z,58.80
2022-11-28T00:04:39.416Z,61.80
2022-11-28T00:07:08.185Z,63.70
2022-11-28T00:09:36.612Z,65.60
2022-11-28T00:12:04.964Z,64.90
2022-11-28T00:14:33.295Z,66.20
2022-11-28T00:17:01.715Z,64.70
2022-11-28T00:19:30.009Z,72.10
2022-11-28T00:21:58.356Z,64.70
2022-11-28T00:24:26.728Z,59.40
2022-11-28T00:26:55.003Z,56.40
2022-11-28T00:29:23.296Z,64.10
2022-11-28T00:31:51.756Z,58.20
2022-11-28T00:34:20.162Z,56.70
2022-11-28T00:36:49.161Z,61.10
2022-11-28T00:39:18.576Z,61.10
2022-11-28T00:41:46.871Z,54.20
2022-11-28T00:44:15.839Z,55.30
2022-11-28T00:46:44.215Z,54.00
2022-11-28T00:49:12.928Z,53.80
2022-11-28T00:51:41.173Z,52.00
2022-11-28T00:54:10.559Z,52.90
2022-11-28T00:56:40.567Z,51.80
2022-11-28T00:59:09.007Z,55.70
2022-11-28T01:01:41.484Z,54.70
2022-11-28T01:04:13.755Z,54.60
2022-11-28T01:06:48.144Z,46.30
2022-11-28T01:09:22.991Z,49.70
2022-11-28T01:11:53.599Z,56.50
2022-11-28T01:14:24.247Z,50.70
2022-11-28T01:16:53.187Z,46.00
2022-11-28T01:19:21.994Z,47.60
2022-11-28T01:21:50.344Z,52.40
2022-11-28T01:24:18.915Z,46.00
2022-11-28T01:26:50.884Z,46.30
2022-11-28T01:29:19.241Z,50.20
2022-11-28T01:31:47.447Z,46.80
2022-11-28T01:34:16.008Z,46.60
2022-11-28T01:36:44.421Z,49.20
2022-11-28T01:39:13.473Z,44.40
2022-11-28T01:41:41.765Z,47.90
2022-11-28T01:44:16.128Z,47.20
2022-11-28T01:46:44.597Z,45.00
2022-11-28T01:49:26.269Z,43.60
2022-11-28T01:52:01.559Z,43.80
2022-11-28T01:54:31.545Z,42.40
2022-11-28T01:57:07.191Z,46.00
2022-11-28T01:59:45.158Z,42.10
2022-11-28T02:02:20.345Z,43.30
2022-11-28T02:04:50.743Z,45.40
2022-11-28T02:07:20.376Z,46.30
2022-11-28T02:09:49.094Z,40.50
2022-11-28T02:12:30.962Z,43.30
2022-11-28T02:15:23.655Z,43.60
2022-11-28T02:18:10.893Z,42.90
2022-11-28T02:20:42.028Z,43.80
2022-11-28T02:23:21.656Z,41.90
2022-11-28T02:26:28.551Z,41.30
2022-11-28T02:29:23.015Z,32.90
2022-11-28T02:32:25.408Z,37.60
2022-11-28T02:35:15.338Z,34.40
2022-11-28T02:38:14.691Z,32.90
2022-11-28T02:41:05.146Z,33.40
2022-11-28T02:44:04.573Z,35.10
2022-11-28T02:46:52.421Z,31.20
2022-11-28T02:49:33.263Z,31.30
2022-11-28T02:52:13.205Z,31.70
2022-11-28T02:54:43.151Z,32.90
2022-11-28T02:57:11.667Z,29.70
2022-11-28T02:59:39.955Z,32.80
2022-11-28T03:02:18.783Z,32.00
2022-11-28T03:04:57.788Z,34.60
2022-11-28T03:07:32.298Z,31.30
2022-11-28T03:10:12.616Z,30.60
2022-11-28T03:12:43.797Z,34.60
2022-11-28T03:15:17.750Z,35.40
2022-11-28T03:18:09.667Z,35.30
2022-11-28T03:21:01.784Z,33.10
2022-11-28T03:24:08.701Z,32.60
2022-11-28T03:26:44.084Z,31.60
2022-11-28T03:29:23.770Z,32.80
2022-11-28T03:31:57.387Z,34.50
2022-11-28T03:34:33.239Z,31.90
2022-11-28T03:37:13.541Z,32.00
2022-11-28T03:39:48.552Z,38.00
2022-11-28T03:42:25.040Z,28.30
2022-11-28T03:45:01.905Z,27.30
2022-11-28T03:47:37.757Z,29.50
2022-11-28T03:50:11.123Z,25.50
2022-11-28T03:52:51.219Z,26.10
2022-11-28T03:55:28.221Z,26.50
2022-11-28T03:58:15.229Z,27.40
2022-11-28T04:01:09.750Z,25.60
2022-11-28T04:03:47.151Z,25.10
2022-11-28T04:06:19.173Z,23.40
2022-11-28T04:09:15.347Z,23.50
2022-11-28T04:12:00.060Z,23.40
2022-11-28T04:14:49.431Z,24.30
2022-11-28T04:17:35.600Z,24.10
2022-11-28T04:20:27.403Z,26.00
2022-11-28T04:23:01.248Z,19.00
2022-11-28T04:25:34.394Z,20.50
2022-11-28T04:28:08.840Z,20.00
2022-11-28T04:30:39.035Z,21.60
2022-11-28T04:33:11.665Z,19.80
2022-11-28T04:35:44.207Z,18.30
2022-11-28T04:38:14.322Z,19.80
2022-11-28T04:40:54.846Z,19.30
2022-11-28T04:43:50.932Z,20.40
2022-11-28T04:46:25.413Z,21.10
2022-11-28T04:48:54.780Z,18.80
2022-11-28T04:51:51.072Z,19.70
2022-11-28T04:54:41.055Z,20.70
2022-11-28T04:57:25.019Z,18.70
2022-11-28T04:59:56.548Z,19.20
2022-11-28T05:02:26.095Z,19.30
2022-11-28T05:04:56.021Z,29.00
2022-11-28T05:07:24.618Z,20.50
2022-11-28T05:09:52.889Z,18.30
2022-11-28T05:12:21.160Z,19.90
2022-11-28T05:14:49.396Z,20.40
2022-11-28T05:17:17.700Z,20.40
2022-11-28T05:19:46.000Z,20.20
2022-11-28T05:22:14.159Z,20.20
2022-11-28T05:24:42.434Z,20.10
2022-11-28T05:27:11.710Z,18.20
2022-11-28T05:29:46.908Z,19.00
2022-11-28T05:32:18.108Z,19.30
2022-11-28T05:34:46.476Z,21.60
2022-11-28T05:37:15.770Z,18.90
2022-11-28T05:39:44.282Z,19.30
2022-11-28T05:42:12.674Z,19.60
2022-11-28T05:44:40.899Z,21.00
2022-11-28T05:47:09.297Z,16.20
2022-11-28T05:49:37.522Z,20.10
2022-11-28T05:52:05.790Z,22.30
2022-11-28T05:54:34.543Z,17.20
2022-11-28T05:57:03.293Z,16.80
2022-11-28T05:59:31.638Z,18.80
2022-11-28T06:02:00.181Z,19.50
2022-11-28T06:04:28.657Z,21.00
2022-11-28T06:06:56.947Z,19.40
2022-11-28T06:09:26.175Z,19.00
2022-11-28T06:11:54.733Z,20.50
2022-11-28T06:14:22.931Z,18.50
2022-11-28T06:16:51.271Z,18.50
2022-11-28T06:19:19.924Z,18.80
2022-11-28T06:21:50.572Z,17.60
2022-11-28T06:24:18.881Z,18.40
2022-11-28T06:26:47.199Z,18.40
2022-11-28T06:29:15.739Z,19.00
2022-11-28T06:31:44.235Z,20.70
2022-11-28T06:34:13.206Z,19.70
2022-11-28T06:36:41.534Z,24.30
2022-11-28T06:39:14.351Z,29.90
2022-11-28T06:41:43.456Z,29.60
2022-11-28T06:44:16.681Z,25.20
2022-11-28T06:46:45.388Z,21.00
2022-11-28T06:49:14.478Z,16.90
2022-11-28T06:51:43.175Z,17.00
2022-11-28T06:54:12.047Z,16.80
2022-11-28T06:56:42.869Z,14.80
2022-11-28T06:59:12.176Z,15.90
2022-11-28T07:01:41.332Z,15.90
2022-11-28T07:04:10.374Z,15.20
2022-11-28T07:06:38.584Z,17.00
2022-11-28T07:09:06.880Z,19.40
2022-11-28T07:11:35.192Z,15.60
2022-11-28T07:14:04.003Z,17.10
2022-11-28T07:16:33.877Z,14.50
2022-11-28T07:19:02.950Z,16.70
2022-11-28T07:21:31.512Z,16.10
2022-11-28T07:24:00.213Z,15.80
2022-11-28T07:26:28.879Z,16.60
2022-11-28T07:28:58.447Z,15.50
2022-11-28T07:31:32.007Z,17.30
2022-11-28T07:34:03.726Z,14.20
2022-11-28T07:36:32.288Z,16.90
2022-11-28T07:39:03.206Z,14.00
2022-11-28T07:41:32.109Z,14.10
2022-11-28T07:44:05.453Z,12.80
2022-11-28T07:46:34.397Z,16.30
2022-11-28T07:49:04.616Z,15.30
2022-11-28T07:51:34.791Z,16.10
2022-11-28T07:54:05.095Z,14.90
2022-11-28T07:57:04.505Z,15.80
2022-11-28T07:59:25.227Z,16.40
2022-11-28T08:01:54.245Z,14.60
2022-11-28T08:04:23.215Z,15.30
2022-11-28T08:06:51.649Z,16.60
2022-11-28T08:09:19.866Z,17.50
2022-11-28T08:11:48.244Z,17.30
2022-11-28T08:14:16.844Z,17.60
2022-11-28T08:16:45.429Z,17.90
2022-11-28T08:19:14.088Z,18.40
2022-11-28T08:21:42.891Z,16.40
2022-11-28T08:24:11.928Z,14.50
2022-11-28T08:26:40.208Z,16.30
2022-11-28T08:29:10.064Z,18.20
2022-11-28T08:31:40.079Z,16.40
2022-11-28T08:34:11.050Z,15.60
2022-11-28T08:36:39.962Z,14.00
2022-11-28T08:39:24.776Z,20.70
2022-11-28T08:41:59.164Z,16.10
2022-11-28T08:44:30.406Z,17.10
2022-11-28T08:46:59.190Z,19.80
2022-11-28T08:49:27.464Z,18.70
2022-11-28T08:51:55.684Z,17.90
2022-11-28T08:54:24.533Z,16.70
2022-11-28T08:56:52.847Z,20.90
2022-11-28T08:59:21.317Z,21.30
2022-11-28T09:01:52.235Z,15.60
2022-11-28T09:04:22.368Z,18.80
2022-11-28T09:06:51.608Z,16.80
2022-11-28T09:09:19.907Z,15.70
2022-11-28T09:11:48.368Z,16.60
2022-11-28T09:14:16.673Z,16.80
2022-11-28T09:16:45.048Z,16.40
2022-11-28T09:19:13.583Z,18.70
2022-11-28T09:21:42.276Z,16.70
2022-11-28T09:24:11.899Z,17.20
2022-11-28T09:26:40.413Z,17.60
2022-11-28T09:29:08.772Z,16.90
2022-11-28T09:31:37.016Z,17.80
2022-11-28T09:34:05.701Z,18.30
2022-11-28T09:36:34.174Z,16.90
2022-11-28T09:39:02.627Z,17.20
2022-11-28T09:41:49.368Z,15.50
2022-11-28T09:44:26.466Z,18.60
2022-11-28T09:47:00.463Z,16.20
2022-11-28T09:49:38.573Z,14.10
2022-11-28T09:52:39.778Z,17.40
2022-11-28T09:55:27.069Z,14.00
2022-11-28T09:58:01.201Z,16.50
2022-11-28T10:00:38.768Z,15.10
2022-11-28T10:03:16.535Z,13.40
2022-11-28T10:06:20.195Z,16.60
2022-11-28T10:09:10.173Z,14.00
2022-11-28T10:12:06.024Z,15.10
2022-11-28T10:14:40.411Z,15.70
2022-11-28T10:17:33.629Z,15.40
2022-11-28T10:20:19.087Z,13.90
2022-11-28T10:25:37.880Z,12.70
2022-11-28T10:28:47.901Z,13.90
2022-11-28T10:31:38.797Z,13.80
2022-11-28T10:34:26.876Z,14.80
2022-11-28T10:37:29.791Z,14.50
2022-11-28T10:40:19.649Z,13.20
2022-11-28T10:42:56.429Z,14.70
2022-11-28T10:45:32.457Z,13.40
2022-11-28T10:48:39.057Z,14.00
2022-11-28T10:51:25.043Z,14.50
2022-11-28T10:56:49.598Z,14.50
2022-11-28T10:59:42.964Z,15.20
2022-11-28T11:02:45.090Z,15.50
2022-11-28T11:05:17.932Z,16.80
2022-11-28T11:07:55.641Z,13.10
2022-11-28T11:11:04.069Z,18.70
2022-11-28T11:13:35.647Z,13.80
2022-11-28T11:16:11.553Z,11.20
2022-11-28T11:18:42.921Z,13.40
2022-11-28T11:21:19.140Z,15.00
2022-11-28T11:23:48.998Z,15.80
2022-11-28T11:26:41.293Z,14.80
2022-11-28T11:29:29.283Z,13.80
2022-11-28T11:32:03.693Z,12.70
2022-11-28T11:34:43.105Z,12.60
2022-11-28T11:37:34.615Z,13.80
2022-11-28T11:40:18.523Z,12.50
2022-11-28T11:42:58.777Z,13.00
2022-11-28T11:45:31.989Z,13.70
2022-11-28T11:48:01.963Z,13.50
2022-11-28T11:50:33.333Z,12.30
2022-11-28T11:53:12.554Z,17.70
2022-11-28T11:55:51.575Z,12.80
2022-11-28T11:58:32.920Z,12.70
2022-11-28T12:01:02.609Z,11.80
2022-11-28T12:03:42.220Z,11.40
2022-11-28T12:06:23.783Z,13.20
2022-11-28T12:08:58.643Z,8.50
2022-11-28T12:11:32.296Z,11.50
2022-11-28T12:14:19.590Z,14.60
2022-11-28T12:17:14.303Z,13.90
2022-11-28T12:20:18.981Z,12.00
2022-11-28T12:23:05.711Z,14.60
2022-11-28T12:26:01.816Z,13.70
2022-11-28T12:29:11.309Z,14.60
2022-11-28T12:32:01.272Z,10.90
2022-11-28T12:34:43.099Z,9.00
2022-11-28T12:37:42.040Z,14.60
2022-11-28T12:40:32.762Z,15.00
2022-11-28T12:43:00.928Z,16.50
2022-11-28T12:45:47.445Z,13.20
2022-11-28T12:48:27.659Z,11.90
2022-11-28T12:51:10.805Z,18.10
2022-11-28T12:53:46.061Z,14.70
2022-11-28T12:56:49.708Z,12.40
2022-11-28T12:59:40.407Z,13.00
2022-11-28T13:02:33.363Z,11.90
2022-11-28T13:05:19.601Z,14.20
2022-11-28T13:08:06.900Z,13.40
2022-11-28T13:11:02.496Z,12.50
2022-11-28T13:14:00.206Z,14.00
2022-11-28T13:16:51.747Z,13.80
2022-11-28T13:19:20.257Z,11.70
2022-11-28T13:22:10.324Z,12.40
2022-11-28T13:24:53.640Z,15.40
2022-11-28T13:27:44.613Z,26.00
2022-11-28T13:30:31.387Z,19.50
2022-11-28T13:33:00.070Z,18.90
2022-11-28T13:35:29.170Z,17.50
2022-11-28T13:44:06.099Z,48.90
2022-11-28T13:46:34.775Z,20.40
2022-11-28T13:49:15.377Z,12.90
2022-11-28T13:51:44.349Z,11.00
2022-11-28T13:54:19.397Z,11.60
2022-11-28T13:59:36.112Z,12.60
2022-11-28T14:02:23.308Z,12.60
2022-11-28T14:04:51.967Z,14.00
2022-11-28T14:07:33.243Z,10.80
2022-11-28T14:10:26.833Z,10.80
2022-11-28T14:13:14.151Z,11.20
2022-11-28T14:15:53.734Z,14.10
2022-11-28T14:18:58.952Z,14.90
2022-11-28T14:21:50.090Z,11.70
2022-11-28T14:24:21.882Z,12.00
2022-11-28T14:26:59.220Z,13.20
2022-11-28T14:29:37.229Z,13.40
2022-11-28T14:32:28.854Z,12.60
2022-11-28T14:34:55.682Z,14.80
2022-11-28T14:37:27.636Z,11.00
2022-11-28T14:39:57.755Z,13.10
2022-11-28T14:42:58.754Z,11.50
2022-11-28T14:45:33.000Z,13.90
2022-11-28T14:48:16.135Z,13.20
2022-11-28T14:50:59.336Z,13.50
2022-11-28T14:53:34.706Z,10.30
2022-11-28T14:56:11.767Z,13.30
2022-11-28T14:58:45.448Z,13.20
2022-11-28T15:01:25.826Z,15.80
2022-11-28T15:04:04.561Z,15.00
2022-11-28T15:06:38.912Z,16.00
2022-11-28T15:09:13.293Z,17.50
2022-11-28T15:12:08.658Z,21.40
2022-11-28T15:14:40.162Z,16.30
2022-11-28T15:17:14.207Z,16.80
2022-11-28T15:19:46.538Z,17.10
2022-11-28T15:22:41.317Z,17.90
2022-11-28T15:25:24.977Z,14.90
2022-11-28T15:27:55.580Z,17.90
2022-11-28T15:30:26.909Z,19.00
2022-11-28T15:33:00.424Z,17.50
2022-11-28T15:35:29.148Z,19.30
2022-11-28T15:37:58.511Z,26.50
2022-11-28T15:40:33.798Z,27.80
2022-11-28T15:43:08.051Z,31.60
2022-11-28T15:45:42.949Z,31.60
2022-11-28T15:48:40.040Z,32.00
2022-11-28T15:51:28.139Z,25.10
2022-11-28T15:53:56.830Z,69.40
2022-11-28T15:56:26.028Z,57.50
2022-11-28T15:58:54.477Z,428.70
2022-11-28T16:01:26.409Z,410.60
2022-11-28T16:03:56.936Z,252.50
2022-11-28T16:06:30.060Z,142.60
2022-11-28T16:09:04.228Z,137.00
2022-11-28T16:11:34.800Z,115.60
2022-11-28T16:14:11.367Z,112.00
2022-11-28T16:16:39.997Z,109.10
2022-11-28T16:19:34.191Z,109.40
2022-11-28T16:22:06.448Z,178.90
2022-11-28T16:24:52.644Z,161.20
2022-11-28T16:27:30.348Z,146.80
2022-11-28T16:29:58.982Z,147.20
2022-11-28T16:32:39.580Z,114.40
2022-11-28T16:35:12.551Z,131.80
2022-11-28T16:37:42.427Z,137.30
2022-11-28T16:40:15.809Z,247.40
2022-11-28T16:42:55.964Z,306.80
2022-11-28T16:45:27.930Z,278.40
2022-11-28T16:48:19.569Z,278.90
2022-11-28T16:51:03.021Z,203.60
2022-11-28T16:53:45.127Z,155.60
2022-11-28T16:56:43.101Z,271.10
2022-11-28T16:59:19.008Z,295.90
2022-11-28T17:01:51.991Z,277.00
2022-11-28T17:04:29.675Z,213.90
2022-11-28T17:07:05.353Z,174.80
2022-11-28T17:09:34.133Z,182.40
2022-11-28T17:12:06.315Z,233.20
2022-11-28T17:14:35.187Z,195.20
2022-11-28T17:17:11.855Z,166.70
2022-11-28T17:19:41.065Z,173.30
2022-11-28T17:22:18.186Z,148.70
2022-11-28T17:24:48.619Z,198.30
2022-11-28T17:27:16.953Z,165.40
2022-11-28T17:29:45.363Z,135.70
2022-11-28T17:32:15.426Z,140.30
2022-11-28T17:34:44.049Z,134.60
2022-11-28T17:37:12.909Z,135.80
2022-11-28T17:40:01.156Z,114.90
2022-11-28T17:42:29.469Z,104.20
2022-11-28T17:44:57.935Z,88.10
2022-11-28T17:47:26.386Z,84.30
2022-11-28T17:49:55.716Z,65.40
2022-11-28T17:52:30.466Z,58.00
2022-11-28T17:55:06.975Z,52.60
2022-11-28T17:57:38.667Z,53.70
2022-11-28T18:00:15.650Z,49.00
2022-11-28T18:02:45.760Z,56.90
2022-11-28T18:05:14.136Z,52.50
2022-11-28T18:07:42.748Z,50.00
2022-11-28T18:10:12.862Z,59.20
2022-11-28T18:12:41.709Z,104.00
2022-11-28T18:15:11.060Z,94.50
2022-11-28T18:17:41.489Z,62.90
2022-11-28T18:20:11.383Z,57.70
2022-11-28T18:22:39.794Z,85.40
2022-11-28T18:25:08.888Z,66.60
2022-11-28T18:27:37.593Z,66.60
2022-11-28T18:30:07.152Z,73.80
2022-11-28T18:32:35.377Z,67.60
2022-11-28T18:35:03.948Z,59.50
2022-11-28T18:37:32.480Z,56.70
2022-11-28T18:40:03.125Z,55.90
2022-11-28T18:42:35.239Z,51.50
2022-11-28T18:45:03.998Z,47.40
2022-11-28T18:47:32.303Z,51.90
2022-11-28T18:50:00.640Z,55.30
2022-11-28T18:52:29.484Z,48.10
2022-11-28T18:54:57.729Z,50.80
2022-11-28T18:57:31.314Z,55.40
2022-11-28T19:00:01.273Z,67.90
2022-11-28T19:02:30.889Z,64.40
2022-11-28T19:04:59.464Z,61.20
2022-11-28T19:07:27.999Z,81.60
2022-11-28T19:09:56.625Z,80.70
2022-11-28T19:12:31.769Z,84.40
2022-11-28T19:15:02.783Z,75.70
2022-11-28T19:17:31.397Z,83.50
2022-11-28T19:19:59.857Z,79.20
2022-11-28T19:22:32.023Z,84.20
2022-11-28T19:25:00.404Z,118.50
2022-11-28T19:27:28.871Z,138.00
2022-11-28T19:29:57.860Z,149.60
2022-11-28T19:32:26.208Z,142.90
2022-11-28T19:34:55.337Z,156.20
2022-11-28T19:37:23.860Z,123.70
2022-11-28T19:40:02.369Z,114.80
2022-11-28T19:42:38.280Z,102.70
2022-11-28T19:45:07.961Z,104.40
2022-11-28T19:47:36.956Z,102.40
2022-11-28T19:50:09.939Z,98.20
2022-11-28T19:52:41.159Z,140.00
2022-11-28T19:55:10.157Z,176.90
2022-11-28T19:57:38.901Z,153.40
2022-11-28T20:00:08.098Z,152.90
2022-11-28T20:02:48.147Z,166.60
2022-11-28T20:05:19.247Z,172.60
2022-11-28T20:07:58.188Z,159.90
2022-11-28T20:10:30.660Z,137.70
2022-11-28T20:13:02.299Z,130.80
2022-11-28T20:15:32.362Z,129.70
2022-11-28T20:18:00.814Z,130.30
2022-11-28T20:20:30.623Z,129.60
2022-11-28T20:23:01.713Z,120.10
2022-11-28T20:25:30.077Z,119.00
2022-11-28T20:27:58.380Z,112.80
2022-11-28T20:30:26.806Z,139.10
2022-11-28T20:32:55.712Z,122.10
2022-11-28T20:35:30.329Z,117.20
2022-11-28T20:38:00.685Z,143.10
2022-11-28T20:40:30.463Z,133.60
2022-11-28T20:43:01.297Z,146.20
2022-11-28T20:45:29.726Z,148.00
2022-11-28T20:47:58.804Z,148.30
2022-11-28T20:50:28.496Z,179.50
2022-11-28T20:52:57.589Z,234.70
2022-11-28T20:55:28.744Z,196.30
2022-11-28T20:57:58.911Z,308.00
2022-11-28T21:00:28.316Z,136.00
2022-11-28T21:02:56.612Z,124.90
2022-11-28T21:05:25.131Z,142.90
2022-11-28T21:07:57.044Z,116.60
2022-11-28T21:10:26.334Z,141.80
2022-11-28T21:12:57.228Z,89.40
2022-11-28T21:15:26.767Z,72.40
2022-11-28T21:17:55.652Z,79.20
2022-11-28T21:20:24.480Z,104.70
2022-11-28T21:22:53.837Z,110.70
2022-11-28T21:25:26.819Z,110.70
2022-11-28T21:27:55.225Z,145.70
2022-11-28T21:30:23.775Z,114.30
2022-11-28T21:32:52.243Z,102.20
2022-11-28T21:35:23.847Z,112.00
2022-11-28T21:37:53.120Z,100.00
2022-11-28T21:40:22.575Z,98.10
2022-11-28T21:42:52.759Z,89.10
2022-11-28T21:45:24.062Z,87.30
2022-11-28T21:47:53.061Z,91.80
2022-11-28T21:50:23.996Z,80.30
2022-11-28T21:52:52.566Z,121.50
2022-11-28T21:55:22.596Z,106.80
2022-11-28T22:01:02.753Z,109.70
2022-11-28T22:03:32.660Z,124.40
2022-11-28T22:06:08.210Z,117.60
2022-11-28T22:08:37.633Z,74.80
2022-11-28T22:11:11.389Z,100.90
2022-11-28T22:13:42.921Z,80.50
2022-11-28T22:16:18.397Z,85.60
2022-11-28T22:18:51.124Z,105.70
2022-11-28T22:24:09.723Z,104.80
2022-11-28T22:26:38.577Z,96.30
2022-11-28T22:29:07.179Z,87.60
2022-11-28T22:31:36.134Z,92.40
2022-11-28T22:34:04.925Z,84.60
2022-11-28T22:36:34.648Z,82.30
2022-11-28T22:39:06.511Z,74.40
2022-11-28T22:41:35.084Z,74.60
2022-11-28T22:48:20.331Z,82.20
2022-11-28T22:50:48.752Z,77.40
2022-11-28T22:53:19.583Z,88.60
2022-11-28T22:55:48.708Z,83.90
2022-11-28T22:58:19.701Z,85.50
2022-11-28T23:00:50.127Z,134.90
2022-11-28T23:07:38.810Z,183.60
2022-11-28T23:10:10.581Z,148.00
2022-11-28T23:12:42.084Z,129.50
2022-11-28T23:15:19.153Z,136.10
2022-11-28T23:17:48.193Z,130.40
2022-11-28T23:20:22.533Z,151.80
2022-11-28T23:22:50.877Z,129.70
2022-11-28T23:25:19.876Z,138.50
2022-11-28T23:27:49.726Z,141.60
2022-11-28T23:30:24.225Z,149.70
2022-11-28T23:33:07.088Z,145.40
2022-11-28T23:35:43.654Z,147.40
2022-11-28T23:38:19.079Z,129.00
2022-11-28T23:40:57.735Z,125.20
2022-11-28T23:44:38.391Z,124.10
2022-11-28T23:47:10.063Z,117.10
2022-11-28T23:49:42.645Z,128.20
2022-11-28T23:52:26.481Z,119.50
2022-11-28T23:54:58.372Z,118.20
2022-11-28T23:57:29.381Z,152.70
